Pittsford Mills, Vermont
Current Conditions -  °F | °C
As of 9:15 AM on Monday 20 Oct 2014 (Local Time) from KRUT Reporting Station
Scattered Clouds Scattered Clouds  
Wind Chill:   Ceiling: Unl
Heat Index:   Visibility: 10mi
Dew Point: -2°   Wind: 0mph
Humidity: 75%   Direction: NA
Pressure: 30.02"   Gusts: NA
Location:  43.7419°N, 73.0064°W
Report Text: KRUT 201315Z 00000KT 10SM SCT031 02/M02 A3002 RMK AO1
Loading
Personal Weather Stations






























Interactive Weather Map
Tropical Storm Tracking
New forecast layout! Learn more

10-Day Weather Forecast

Advertisements
Track Severe Weather on mobile